Hauptseite
METAR-TAF:

METAR-TAF

Flughäfen :

Daressalam, Tansania

Flughafen Dar es Salaam

Breite: 06-52S, Länge: 039-12E, Höhe: 55 m

Beobachtung

Neuester Wetterbericht von vor 36 Minuten, um 16:00 UTC
Wind 13 kt aus Nordost
Temperatur 28°C
Luftfeuchtigkeit 79%
Luftdruck 1010 hPa
Sichtweite 10 km oder mehr
Aufgelockert bewölkt in der Höhe von 1700 ft

METAR: HTDA 181600Z 04013KT 9999 SCT017 28/24 Q1010 NOSIG

Zeit: 19:36 (16:36 UTC)

Prognose

Neuester Wetterbericht von vor 5 Stunden und 36 Minuten, um 11:00 UTC
Gültige Prognose vom 18 um 12 UTC bis 19 um 18 UTC
Wind 15 kt aus Nord/Nordost
Durchbrochene Bewölkung in der Höhe von 1800 ft

TAF: HTDA 181100Z 1812/1918 03015KT BKN018

Wetterbeobachtungen und Prognosen von mehr als 4000 Flughäfen (METAR und TAF Bericht).

Die verfügbaren Stationen werden durch gelbe und rote Markierungen auf der Karte dargestellt.

Führen Sie die Maus auf sie, um den Namen der Station zu sehen.

Darauf klicken, um die Beobachtung von Wetterbeobachtungen und Prognosen zu sehen.

Um die Karte zu ändern : klicken Sie auf den grünen Tasten mit einem schwarzen Kreuz Zum Vergrößern, auf den grünen Button mit einem Gedankenstrich zu verkleinern, oder auf die grünen Pfeile für benachbarte Karten.


METAR-TAF: